Kouwamaru — JD3211 — position and weather

sailwx.info

Track history (hours):
 
Tides and Currents Weather Stations Pressure Air Temp Water Temp Dewpoint Dewpoint Depression Visibility Wind Speed Wind Dir Waves Ship Positions

Kouwamaru

Last reported at 2017-Sep-20 10:48 UTC. Time now 2017-Sep-21 12:28 UTC.
Position N 34°36' E 134°55'.

Length 48 m; draft 3.2 m.

Type: Tanker. MMSI: 431002774.

Date/timePositionNaut miles runAvg speedWind from/ knotsBaromVisibWave heightAir tempDewpointWater temp
2017-Sep-20 10:48N 34°36' E 134°55'412.9
2017-Sep-20 10:28N 34°38' E 134°59'612.8
2017-Sep-20 09:59N 34°36' E 135°07'510.8
2017-Sep-20 09:31N 34°36' E 135°13'5 9.8
2017-Sep-20 09:01N 34°39' E 135°18'3 6.3
2017-Sep-20 08:30N 34°42' E 135°18'0 0.0
2017-Sep-19 22:07N 34°42' E 135°18'1 5.4
2017-Sep-19 22:00N 34°42' E 135°18'0 0.2
2017-Sep-19 21:26N 34°42' E 135°19'0 0.0
2017-Sep-19 20:56N 34°42' E 135°19'0 0.1
2017-Sep-19 20:26N 34°42' E 135°18'0 0.0
2017-Sep-19 19:50N 34°42' E 135°18'0 0.1
2017-Sep-19 19:20N 34°42' E 135°19'0 0.1
2017-Sep-19 18:56N 34°42' E 135°18'0 0.0
2017-Sep-19 18:26N 34°42' E 135°18'0 0.0
2017-Sep-19 17:56N 34°42' E 135°18'0 0.0
2017-Sep-19 17:26N 34°42' E 135°18'0 0.0
2017-Sep-19 16:44N 34°42' E 135°18'0 0.0
2017-Sep-19 16:26N 34°42' E 135°18'0 0.0
2017-Sep-19 15:56N 34°42' E 135°18'0 0.0
2017-Sep-19 15:26N 34°42' E 135°18'0 0.0
2017-Sep-19 14:56N 34°42' E 135°18'0 0.0
2017-Sep-19 13:56N 34°42' E 135°18'0 0.0
2017-Sep-19 11:56N 34°42' E 135°18'0 0.0
2017-Sep-19 11:26N 34°42' E 135°18'0 0.1
2017-Sep-19 10:56N 34°42' E 135°19'0 0.0
2017-Sep-19 10:26N 34°42' E 135°19'0 0.0
2017-Sep-19 09:56N 34°42' E 135°19'2 3.6
2017-Sep-19 09:30N 34°40' E 135°19'510.3
2017-Sep-19 09:00N 34°36' E 135°16'611.4
2017-Sep-19 08:30N 34°35' E 135°09'9 0.3
2017-Sep-18 04:25N 34°37' E 134°59'3 7.5
2017-Sep-18 04:00N 34°37' E 135°03'4 7.3
2017-Sep-18 03:30N 34°36' E 135°07'510.9
2017-Sep-18 03:00N 34°37' E 135°13'510.6
2017-Sep-18 02:30N 34°41' E 135°18'2 3.2
2017-Sep-18 01:48N 34°43' E 135°18'0 0.0
2017-Sep-18 01:24N 34°43' E 135°18'0 0.0
2017-Sep-18 00:54N 34°43' E 135°18'0 0.0
2017-Sep-18 00:30N 34°43' E 135°18'0 0.0
2017-Sep-18 00:00N 34°43' E 135°18'0 0.0
2017-Sep-17 23:30N 34°43' E 135°18'0 0.0
2017-Sep-17 23:00N 34°43' E 135°18'0 0.0
2017-Sep-17 22:30N 34°43' E 135°18'0 0.0
2017-Sep-17 21:54N 34°43' E 135°18'0 0.0
2017-Sep-17 21:30N 34°43' E 135°18'0 0.0
2017-Sep-17 21:00N 34°43' E 135°18'0 0.0
2017-Sep-17 20:30N 34°43' E 135°18'0 0.0
2017-Sep-17 19:48N 34°43' E 135°18'0 0.0
2017-Sep-17 19:30N 34°43' E 135°18'0 0.0
2017-Sep-17 19:00N 34°43' E 135°18'0 0.0
2017-Sep-17 18:24N 34°43' E 135°18'0 0.0
2017-Sep-17 18:00N 34°43' E 135°18'0 0.0
2017-Sep-17 17:18N 34°43' E 135°18'0 0.0
2017-Sep-17 16:54N 34°43' E 135°18'0 0.0
2017-Sep-17 16:30N 34°43' E 135°18'0 0.0
2017-Sep-17 16:00N 34°43' E 135°18'0 0.0
2017-Sep-17 15:30N 34°43' E 135°18'0 0.0
2017-Sep-17 15:00N 34°43' E 135°18'0 0.0
2017-Sep-17 14:30N 34°43' E 135°18'0 0.0
2017-Sep-17 13:06N 34°43' E 135°18'0 0.0
2017-Sep-17 12:48N 34°43' E 135°18'0 0.0
2017-Sep-17 12:30N 34°43' E 135°18'0 0.0
2017-Sep-17 12:00N 34°43' E 135°18'0 0.0
2017-Sep-17 11:30N 34°43' E 135°18'0 0.0
2017-Sep-17 10:48N 34°43' E 135°18'0 0.0
2017-Sep-17 10:30N 34°43' E 135°18'0 0.0
2017-Sep-17 10:00N 34°43' E 135°18'0 0.0
2017-Sep-17 09:30N 34°43' E 135°18'0 0.0
2017-Sep-17 09:00N 34°43' E 135°18'0 0.0
2017-Sep-17 08:30N 34°43' E 135°18'0 0.0
2017-Sep-17 08:00N 34°43' E 135°18'0 0.0
2017-Sep-17 07:30N 34°43' E 135°18'0 0.0
2017-Sep-17 07:00N 34°43' E 135°18'0 0.0
2017-Sep-17 06:30N 34°43' E 135°18'0 0.0
2017-Sep-17 06:00N 34°43' E 135°18'0 0.0
2017-Sep-17 05:30N 34°43' E 135°18'0 0.0
2017-Sep-17 05:00N 34°43' E 135°18'0 0.0
2017-Sep-17 04:30N 34°43' E 135°18'0 0.0
2017-Sep-17 03:54N 34°43' E 135°18'0 0.0
2017-Sep-17 03:30N 34°43' E 135°18'0 0.0
2017-Sep-17 03:00N 34°43' E 135°18'0 0.0
2017-Sep-17 02:30N 34°43' E 135°18'0 0.0
2017-Sep-17 02:00N 34°43' E 135°18'0 0.0
2017-Sep-17 01:30N 34°43' E 135°18'0 0.0
2017-Sep-17 00:54N 34°43' E 135°18'0 0.0
2017-Sep-17 00:30N 34°43' E 135°18'0 0.0
2017-Sep-17 00:00N 34°43' E 135°18'0 0.0
2017-Sep-16 23:24N 34°43' E 135°18'0 0.0
2017-Sep-16 23:00N 34°43' E 135°18'0 0.0
2017-Sep-16 22:24N 34°43' E 135°18'0 0.0
2017-Sep-16 22:00N 34°43' E 135°18'0 0.0
2017-Sep-16 21:30N 34°43' E 135°18'0 0.0
2017-Sep-16 21:00N 34°43' E 135°18'0 0.0
2017-Sep-16 20:30N 34°43' E 135°18'0 0.0
2017-Sep-16 20:00N 34°43' E 135°18'0 0.0
2017-Sep-16 19:30N 34°43' E 135°18'0 0.0
2017-Sep-16 19:00N 34°43' E 135°18'0 0.0
2017-Sep-16 18:30N 34°43' E 135°18'0 0.0
2017-Sep-16 17:54N 34°43' E 135°18'0 0.0
2017-Sep-16 17:30N 34°43' E 135°18'0 0.0
2017-Sep-16 17:00N 34°43' E 135°18'0 0.0
2017-Sep-16 16:30N 34°43' E 135°18'0 0.0
2017-Sep-16 16:00N 34°43' E 135°18'0 0.0
2017-Sep-16 15:30N 34°43' E 135°18'0 0.0
2017-Sep-16 15:00N 34°43' E 135°18'0 0.0
2017-Sep-16 14:30N 34°43' E 135°18'0 0.0
2017-Sep-16 14:00N 34°43' E 135°18'0 0.0
2017-Sep-16 13:30N 34°43' E 135°18'0 0.0
2017-Sep-16 12:54N 34°43' E 135°18'0 0.0
2017-Sep-16 12:30N 34°43' E 135°18'0 0.0
2017-Sep-16 11:48N 34°43' E 135°18'0 0.0
2017-Sep-16 11:30N 34°43' E 135°18'0 0.0
2017-Sep-16 11:00N 34°43' E 135°18'0 0.0
2017-Sep-16 10:24N 34°43' E 135°18'0 0.0
2017-Sep-16 10:00N 34°43' E 135°18'0 0.0
2017-Sep-16 09:24N 34°43' E 135°18'0 0.0
2017-Sep-16 09:00N 34°43' E 135°18'0 0.0
2017-Sep-16 08:30N 34°43' E 135°18'0 0.0
2017-Sep-16 07:42N 34°43' E 135°18'0 0.0
2017-Sep-16 07:30N 34°43' E 135°18'0 0.0
2017-Sep-16 06:54N 34°43' E 135°18'0 0.0
2017-Sep-16 06:30N 34°43' E 135°18'0 0.0
2017-Sep-16 06:00N 34°43' E 135°18'0 0.0
2017-Sep-16 05:30N 34°43' E 135°18'0 1.0
2017-Sep-16 05:00N 34°42' E 135°17'4 8.3
2017-Sep-16 04:30N 34°38' E 135°18'510.0
2017-Sep-16 04:00N 34°35' E 135°13'611.3
2017-Sep-16 03:30N 34°35' E 135°06'  
2017-Sep-13 06:00N 34°37' E 135°01'612.4
2017-Sep-13 05:30N 34°34' E 135°07'611.1
2017-Sep-13 05:00N 34°30' E 135°13'611.1
2017-Sep-13 04:29N 34°27' E 135°18'1 0.3
2017-Sep-12 23:18N 34°26' E 135°19'0 0.6
2017-Sep-12 22:59N 34°26' E 135°19'1 1.9
2017-Sep-12 22:29N 34°27' E 135°19'4 9.0
2017-Sep-12 22:01N 34°31' E 135°18'611.6
2017-Sep-12 21:29N 34°37' E 135°18'511.3
2017-Sep-12 21:00N 34°42' E 135°17'1 0.0
2017-Sep-12 03:36N 34°43' E 135°18'0 2.7
2017-Sep-12 03:30N 34°43' E 135°17'1 0.1
2017-Sep-11 22:13N 34°42' E 135°18'1 4.6
2017-Sep-11 22:00N 34°42' E 135°19'0 0.3
2017-Sep-11 21:19N 34°42' E 135°19'0 0.0
2017-Sep-11 20:50N 34°42' E 135°19'0 0.0
2017-Sep-11 20:19N 34°42' E 135°19'0 0.0
2017-Sep-11 19:55N 34°42' E 135°19'0 0.0
2017-Sep-11 19:26N 34°42' E 135°19'0 0.0
2017-Sep-11 18:55N 34°42' E 135°19'0 0.0
2017-Sep-11 18:26N 34°42' E 135°19'0 0.0
2017-Sep-11 17:55N 34°42' E 135°19'0 0.0
2017-Sep-11 17:26N 34°42' E 135°19'0 0.0
2017-Sep-11 16:49N 34°42' E 135°19'0 0.0
2017-Sep-11 16:20N 34°42' E 135°19'0 0.0
2017-Sep-11 15:56N 34°42' E 135°19'0 0.0
2017-Sep-11 15:19N 34°42' E 135°19'0 0.0
2017-Sep-11 14:55N 34°42' E 135°19'0 0.0
2017-Sep-11 14:26N 34°42' E 135°19'0 0.0
2017-Sep-11 13:56N 34°42' E 135°19'0 0.0
2017-Sep-11 13:26N 34°42' E 135°19'0 0.0
2017-Sep-11 12:55N 34°42' E 135°19'0 0.0
2017-Sep-11 12:19N 34°42' E 135°19'0 0.0
2017-Sep-11 11:56N 34°42' E 135°19'0 0.0
2017-Sep-11 11:25N 34°42' E 135°19'2 5.7
2017-Sep-11 11:00N 34°39' E 135°19'610.7
2017-Sep-11 10:29N 34°34' E 135°19'711.1
2017-Sep-11 09:53N 34°27' E 135°19'1 3.0
2017-Sep-11 09:30N 34°26' E 135°19'0 0.0
2017-Sep-11 04:53N 34°26' E 135°19'1 1.0
2017-Sep-11 03:52N 34°27' E 135°19'1 0.6
2017-Sep-11 02:50N 34°27' E 135°19'410.5
2017-Sep-11 02:30N 34°31' E 135°19'511.0
2017-Sep-11 02:00N 34°36' E 135°22'3 0.9
2017-Sep-10 22:23N 34°35' E 135°26'2 5.0
2017-Sep-10 22:00N 34°36' E 135°24'1 2.1
2017-Sep-10 21:30N 34°35' E 135°23'0 0.0
2017-Sep-10 20:56N 34°35' E 135°23'0 0.0
2017-Sep-10 19:14N 34°35' E 135°23'0 0.0
2017-Sep-10 18:02N 34°35' E 135°23'0 0.0
2017-Sep-10 17:38N 34°35' E 135°23'0 0.0
2017-Sep-10 17:08N 34°35' E 135°23'0 0.0
2017-Sep-10 16:56N 34°35' E 135°23'0 0.0
2017-Sep-10 16:14N 34°35' E 135°23'0 0.0
2017-Sep-10 15:56N 34°35' E 135°23'0 0.0
2017-Sep-10 15:26N 34°35' E 135°23'0 0.0
2017-Sep-10 14:44N 34°35' E 135°23'0 0.0
2017-Sep-10 13:50N 34°35' E 135°23'0 0.0
2017-Sep-10 13:26N 34°35' E 135°23'0 0.0
2017-Sep-10 12:56N 34°35' E 135°23'3 8.1
2017-Sep-10 12:30N 34°35' E 135°19'611.2
2017-Sep-10 12:00N 34°35' E 135°12'612.3
2017-Sep-10 11:30N 34°35' E 135°04'  
Track history (hours):
 
Tides and Currents Weather Stations Pressure Air Temp Water Temp Dewpoint Dewpoint Depression Visibility Wind Speed Wind Dir Waves Ship Positions

Kouwamaru

Last reported at 2017-Sep-20 10:48 UTC. Time now 2017-Sep-21 12:28 UTC.
Position N 34°36' E 134°55'.

Length 48 m; draft 3.2 m.

Type: Tanker. MMSI: 431002774.

Date/timePositionNaut miles runAvg speedWind from/ knotsBaromVisibWave heightAir tempDewpointWater temp
2017-Sep-20 10:48N 34°36' E 134°55'412.9
2017-Sep-20 10:28N 34°38' E 134°59'612.8
2017-Sep-20 09:59N 34°36' E 135°07'510.8
2017-Sep-20 09:31N 34°36' E 135°13'5 9.8
2017-Sep-20 09:01N 34°39' E 135°18'3 6.3
2017-Sep-20 08:30N 34°42' E 135°18'0 0.0
2017-Sep-19 22:07N 34°42' E 135°18'1 5.4
2017-Sep-19 22:00N 34°42' E 135°18'0 0.2
2017-Sep-19 21:26N 34°42' E 135°19'0 0.0
2017-Sep-19 20:56N 34°42' E 135°19'0 0.1
2017-Sep-19 20:26N 34°42' E 135°18'0 0.0
2017-Sep-19 19:50N 34°42' E 135°18'0 0.1
2017-Sep-19 19:20N 34°42' E 135°19'0 0.1
2017-Sep-19 18:56N 34°42' E 135°18'0 0.0
2017-Sep-19 18:26N 34°42' E 135°18'0 0.0
2017-Sep-19 17:56N 34°42' E 135°18'0 0.0
2017-Sep-19 17:26N 34°42' E 135°18'0 0.0
2017-Sep-19 16:44N 34°42' E 135°18'0 0.0
2017-Sep-19 16:26N 34°42' E 135°18'0 0.0
2017-Sep-19 15:56N 34°42' E 135°18'0 0.0
2017-Sep-19 15:26N 34°42' E 135°18'0 0.0
2017-Sep-19 14:56N 34°42' E 135°18'0 0.0
2017-Sep-19 13:56N 34°42' E 135°18'0 0.0
2017-Sep-19 11:56N 34°42' E 135°18'0 0.0
2017-Sep-19 11:26N 34°42' E 135°18'0 0.1
2017-Sep-19 10:56N 34°42' E 135°19'0 0.0
2017-Sep-19 10:26N 34°42' E 135°19'0 0.0
2017-Sep-19 09:56N 34°42' E 135°19'2 3.6
2017-Sep-19 09:30N 34°40' E 135°19'510.3
2017-Sep-19 09:00N 34°36' E 135°16'611.4
2017-Sep-19 08:30N 34°35' E 135°09'9 0.3
2017-Sep-18 04:25N 34°37' E 134°59'3 7.5
2017-Sep-18 04:00N 34°37' E 135°03'4 7.3
2017-Sep-18 03:30N 34°36' E 135°07'510.9
2017-Sep-18 03:00N 34°37' E 135°13'510.6
2017-Sep-18 02:30N 34°41' E 135°18'2 3.2
2017-Sep-18 01:48N 34°43' E 135°18'0 0.0
2017-Sep-18 01:24N 34°43' E 135°18'0 0.0
2017-Sep-18 00:54N 34°43' E 135°18'0 0.0
2017-Sep-18 00:30N 34°43' E 135°18'0 0.0
2017-Sep-18 00:00N 34°43' E 135°18'0 0.0
2017-Sep-17 23:30N 34°43' E 135°18'0 0.0
2017-Sep-17 23:00N 34°43' E 135°18'0 0.0
2017-Sep-17 22:30N 34°43' E 135°18'0 0.0
2017-Sep-17 21:54N 34°43' E 135°18'0 0.0
2017-Sep-17 21:30N 34°43' E 135°18'0 0.0
2017-Sep-17 21:00N 34°43' E 135°18'0 0.0
2017-Sep-17 20:30N 34°43' E 135°18'0 0.0
2017-Sep-17 19:48N 34°43' E 135°18'0 0.0
2017-Sep-17 19:30N 34°43' E 135°18'0 0.0
2017-Sep-17 19:00N 34°43' E 135°18'0 0.0
2017-Sep-17 18:24N 34°43' E 135°18'0 0.0
2017-Sep-17 18:00N 34°43' E 135°18'0 0.0
2017-Sep-17 17:18N 34°43' E 135°18'0 0.0
2017-Sep-17 16:54N 34°43' E 135°18'0 0.0
2017-Sep-17 16:30N 34°43' E 135°18'0 0.0
2017-Sep-17 16:00N 34°43' E 135°18'0 0.0
2017-Sep-17 15:30N 34°43' E 135°18'0 0.0
2017-Sep-17 15:00N 34°43' E 135°18'0 0.0
2017-Sep-17 14:30N 34°43' E 135°18'0 0.0
2017-Sep-17 13:06N 34°43' E 135°18'0 0.0
2017-Sep-17 12:48N 34°43' E 135°18'0 0.0
2017-Sep-17 12:30N 34°43' E 135°18'0 0.0
2017-Sep-17 12:00N 34°43' E 135°18'0 0.0
2017-Sep-17 11:30N 34°43' E 135°18'0 0.0
2017-Sep-17 10:48N 34°43' E 135°18'0 0.0
2017-Sep-17 10:30N 34°43' E 135°18'0 0.0
2017-Sep-17 10:00N 34°43' E 135°18'0 0.0
2017-Sep-17 09:30N 34°43' E 135°18'0 0.0
2017-Sep-17 09:00N 34°43' E 135°18'0 0.0
2017-Sep-17 08:30N 34°43' E 135°18'0 0.0
2017-Sep-17 08:00N 34°43' E 135°18'0 0.0
2017-Sep-17 07:30N 34°43' E 135°18'0 0.0
2017-Sep-17 07:00N 34°43' E 135°18'0 0.0
2017-Sep-17 06:30N 34°43' E 135°18'0 0.0
2017-Sep-17 06:00N 34°43' E 135°18'0 0.0
2017-Sep-17 05:30N 34°43' E 135°18'0 0.0
2017-Sep-17 05:00N 34°43' E 135°18'0 0.0
2017-Sep-17 04:30N 34°43' E 135°18'0 0.0
2017-Sep-17 03:54N 34°43' E 135°18'0 0.0
2017-Sep-17 03:30N 34°43' E 135°18'0 0.0
2017-Sep-17 03:00N 34°43' E 135°18'0 0.0
2017-Sep-17 02:30N 34°43' E 135°18'0 0.0
2017-Sep-17 02:00N 34°43' E 135°18'0 0.0
2017-Sep-17 01:30N 34°43' E 135°18'0 0.0
2017-Sep-17 00:54N 34°43' E 135°18'0 0.0
2017-Sep-17 00:30N 34°43' E 135°18'0 0.0
2017-Sep-17 00:00N 34°43' E 135°18'0 0.0
2017-Sep-16 23:24N 34°43' E 135°18'0 0.0
2017-Sep-16 23:00N 34°43' E 135°18'0 0.0
2017-Sep-16 22:24N 34°43' E 135°18'0 0.0
2017-Sep-16 22:00N 34°43' E 135°18'0 0.0
2017-Sep-16 21:30N 34°43' E 135°18'0 0.0
2017-Sep-16 21:00N 34°43' E 135°18'0 0.0
2017-Sep-16 20:30N 34°43' E 135°18'0 0.0
2017-Sep-16 20:00N 34°43' E 135°18'0 0.0
2017-Sep-16 19:30N 34°43' E 135°18'0 0.0
2017-Sep-16 19:00N 34°43' E 135°18'0 0.0
2017-Sep-16 18:30N 34°43' E 135°18'0 0.0
2017-Sep-16 17:54N 34°43' E 135°18'0 0.0
2017-Sep-16 17:30N 34°43' E 135°18'0 0.0
2017-Sep-16 17:00N 34°43' E 135°18'0 0.0
2017-Sep-16 16:30N 34°43' E 135°18'0 0.0
2017-Sep-16 16:00N 34°43' E 135°18'0 0.0
2017-Sep-16 15:30N 34°43' E 135°18'0 0.0
2017-Sep-16 15:00N 34°43' E 135°18'0 0.0
2017-Sep-16 14:30N 34°43' E 135°18'0 0.0
2017-Sep-16 14:00N 34°43' E 135°18'0 0.0
2017-Sep-16 13:30N 34°43' E 135°18'0 0.0
2017-Sep-16 12:54N 34°43' E 135°18'0 0.0
2017-Sep-16 12:30N 34°43' E 135°18'0 0.0
2017-Sep-16 11:48N 34°43' E 135°18'0 0.0
2017-Sep-16 11:30N 34°43' E 135°18'0 0.0
2017-Sep-16 11:00N 34°43' E 135°18'0 0.0
2017-Sep-16 10:24N 34°43' E 135°18'0 0.0
2017-Sep-16 10:00N 34°43' E 135°18'0 0.0
2017-Sep-16 09:24N 34°43' E 135°18'0 0.0
2017-Sep-16 09:00N 34°43' E 135°18'0 0.0
2017-Sep-16 08:30N 34°43' E 135°18'0 0.0
2017-Sep-16 07:42N 34°43' E 135°18'0 0.0
2017-Sep-16 07:30N 34°43' E 135°18'0 0.0
2017-Sep-16 06:54N 34°43' E 135°18'0 0.0
2017-Sep-16 06:30N 34°43' E 135°18'0 0.0
2017-Sep-16 06:00N 34°43' E 135°18'0 0.0
2017-Sep-16 05:30N 34°43' E 135°18'0 1.0
2017-Sep-16 05:00N 34°42' E 135°17'4 8.3
2017-Sep-16 04:30N 34°38' E 135°18'510.0
2017-Sep-16 04:00N 34°35' E 135°13'611.3
2017-Sep-16 03:30N 34°35' E 135°06'  
2017-Sep-13 06:00N 34°37' E 135°01'612.4
2017-Sep-13 05:30N 34°34' E 135°07'611.1
2017-Sep-13 05:00N 34°30' E 135°13'611.1
2017-Sep-13 04:29N 34°27' E 135°18'1 0.3
2017-Sep-12 23:18N 34°26' E 135°19'0 0.6
2017-Sep-12 22:59N 34°26' E 135°19'1 1.9
2017-Sep-12 22:29N 34°27' E 135°19'4 9.0
2017-Sep-12 22:01N 34°31' E 135°18'611.6
2017-Sep-12 21:29N 34°37' E 135°18'511.3
2017-Sep-12 21:00N 34°42' E 135°17'1 0.0
2017-Sep-12 03:36N 34°43' E 135°18'0 2.7
2017-Sep-12 03:30N 34°43' E 135°17'1 0.1
2017-Sep-11 22:13N 34°42' E 135°18'1 4.6
2017-Sep-11 22:00N 34°42' E 135°19'0 0.3
2017-Sep-11 21:19N 34°42' E 135°19'0 0.0
2017-Sep-11 20:50N 34°42' E 135°19'0 0.0
2017-Sep-11 20:19N 34°42' E 135°19'0 0.0
2017-Sep-11 19:55N 34°42' E 135°19'0 0.0
2017-Sep-11 19:26N 34°42' E 135°19'0 0.0
2017-Sep-11 18:55N 34°42' E 135°19'0 0.0
2017-Sep-11 18:26N 34°42' E 135°19'0 0.0
2017-Sep-11 17:55N 34°42' E 135°19'0 0.0
2017-Sep-11 17:26N 34°42' E 135°19'0 0.0
2017-Sep-11 16:49N 34°42' E 135°19'0 0.0
2017-Sep-11 16:20N 34°42' E 135°19'0 0.0
2017-Sep-11 15:56N 34°42' E 135°19'0 0.0
2017-Sep-11 15:19N 34°42' E 135°19'0 0.0
2017-Sep-11 14:55N 34°42' E 135°19'0 0.0
2017-Sep-11 14:26N 34°42' E 135°19'0 0.0
2017-Sep-11 13:56N 34°42' E 135°19'0 0.0
2017-Sep-11 13:26N 34°42' E 135°19'0 0.0
2017-Sep-11 12:55N 34°42' E 135°19'0 0.0
2017-Sep-11 12:19N 34°42' E 135°19'0 0.0
2017-Sep-11 11:56N 34°42' E 135°19'0 0.0
2017-Sep-11 11:25N 34°42' E 135°19'2 5.7
2017-Sep-11 11:00N 34°39' E 135°19'610.7
2017-Sep-11 10:29N 34°34' E 135°19'711.1
2017-Sep-11 09:53N 34°27' E 135°19'1 3.0
2017-Sep-11 09:30N 34°26' E 135°19'0 0.0
2017-Sep-11 04:53N 34°26' E 135°19'1 1.0
2017-Sep-11 03:52N 34°27' E 135°19'1 0.6
2017-Sep-11 02:50N 34°27' E 135°19'410.5
2017-Sep-11 02:30N 34°31' E 135°19'511.0
2017-Sep-11 02:00N 34°36' E 135°22'3 0.9
2017-Sep-10 22:23N 34°35' E 135°26'2 5.0
2017-Sep-10 22:00N 34°36' E 135°24'1 2.1
2017-Sep-10 21:30N 34°35' E 135°23'0 0.0
2017-Sep-10 20:56N 34°35' E 135°23'0 0.0
2017-Sep-10 19:14N 34°35' E 135°23'0 0.0
2017-Sep-10 18:02N 34°35' E 135°23'0 0.0
2017-Sep-10 17:38N 34°35' E 135°23'0 0.0
2017-Sep-10 17:08N 34°35' E 135°23'0 0.0
2017-Sep-10 16:56N 34°35' E 135°23'0 0.0
2017-Sep-10 16:14N 34°35' E 135°23'0 0.0
2017-Sep-10 15:56N 34°35' E 135°23'0 0.0
2017-Sep-10 15:26N 34°35' E 135°23'0 0.0
2017-Sep-10 14:44N 34°35' E 135°23'0 0.0
2017-Sep-10 13:50N 34°35' E 135°23'0 0.0
2017-Sep-10 13:26N 34°35' E 135°23'0 0.0
2017-Sep-10 12:56N 34°35' E 135°23'3 8.1
2017-Sep-10 12:30N 34°35' E 135°19'611.2
2017-Sep-10 12:00N 34°35' E 135°12'612.3
2017-Sep-10 11:30N 34°35' E 135°04'  

Dump ship's entire track history